Time;durP1;ratioP1;P1;durP2;ratioP2;P2;SDS_P1;SDS_P2;PMS_P1;PMS_P2;Temp;Humidity;BMP_temperature;BMP_pressure;BME280_temperature;BME280_humidity;BME280_pressure;Samples;Min_cycle;Max_cycle;Signal;HPM_P1;HPM_P2
2022/01/08 00:01:39;;;;;;;9.85;2.50;;;;;;;;;;4987144;28;20047;-84
2022/01/08 00:04:05;;;;;;;9.45;2.70;;;1.80;99.90;;;;;;4958220;28;20042;-83
2022/01/08 00:06:31;;;;;;;8.52;2.40;;;1.80;99.90;;;;;;4985805;28;20399;-83
2022/01/08 00:08:57;;;;;;;9.05;2.40;;;3.00;99.90;;;;;;4974332;28;20121;-83
2022/01/08 00:11:26;;;;;;;9.75;2.30;;;1.80;99.90;;;;;;4964837;28;20081;-83
2022/01/08 00:13:52;;;;;;;12.63;2.47;;;1.80;99.90;;;;;;4978428;28;20047;-83
2022/01/08 00:16:18;;;;;;;6.57;2.03;;;1.80;99.90;;;;;;4979993;28;20038;-84
2022/01/08 00:18:43;;;;;;;9.88;2.35;;;1.80;99.90;;;;;;4969583;28;20397;-83
2022/01/08 00:21:09;;;;;;;7.95;2.28;;;1.90;99.90;;;;;;4955230;28;20030;-83
2022/01/08 00:23:36;;;;;;;8.65;2.10;;;1.90;99.90;;;;;;4969567;28;20046;-83
2022/01/08 00:26:04;;;;;;;7.25;2.20;;;1.90;99.90;;;;;;4975173;28;20038;-83
2022/01/08 00:28:30;;;;;;;7.75;2.20;;;0.50;99.90;;;;;;4974631;28;20073;-83
2022/01/08 00:30:55;;;;;;;9.40;2.55;;;1.90;99.90;;;;;;4970938;28;20042;-83
2022/01/08 00:33:22;;;;;;;7.85;2.00;;;;;;;;;;4976773;28;20100;-83
2022/01/08 00:35:47;;;;;;;8.07;2.10;;;1.90;99.90;;;;;;4993516;28;20042;-83
2022/01/08 00:38:13;;;;;;;8.50;2.40;;;1.90;99.90;;;;;;4974761;28;20056;-84
2022/01/08 00:40:39;;;;;;;8.38;2.35;;;1.90;99.90;;;;;;4974346;28;20092;-83
2022/01/08 00:43:05;;;;;;;7.22;2.00;;;1.90;99.90;;;;;;4993882;28;20034;-83
2022/01/08 00:45:31;;;;;;;8.60;2.13;;;;;;;;;;4992394;28;20104;-83
2022/01/08 00:47:57;;;;;;;9.23;2.30;;;1.90;99.90;;;;;;4993600;28;20042;-83
2022/01/08 00:50:23;;;;;;;7.43;2.17;;;1.90;99.90;;;;;;4993117;28;20066;-83
2022/01/08 00:52:49;;;;;;;6.72;2.15;;;3.00;99.90;;;;;;4973158;28;20154;-83
2022/01/08 00:55:15;;;;;;;9.02;2.30;;;1.90;99.90;;;;;;4976628;28;20235;-82
2022/01/08 00:57:41;;;;;;;7.40;2.10;;;2.10;99.90;;;;;;4977342;28;20072;-83
2022/01/08 01:00:10;;;;;;;7.53;2.40;;;1.90;99.90;;;;;;4969245;28;20065;-82
2022/01/08 01:02:36;;;;;;;10.70;2.42;;;1.80;99.90;;;;;;4993013;28;20034;-82
2022/01/08 01:05:04;;;;;;;7.68;2.30;;;1.90;99.90;;;;;;4993471;28;20042;-83
2022/01/08 01:07:30;;;;;;;8.15;2.38;;;1.80;99.90;;;;;;4992492;28;20041;-82
2022/01/08 01:09:56;;;;;;;8.73;2.63;;;1.80;99.90;;;;;;4992059;28;20049;-83
2022/01/08 01:12:21;;;;;;;8.82;2.50;;;2.00;99.90;;;;;;4973750;28;20491;-82
2022/01/08 01:14:47;;;;;;;11.43;2.80;;;1.70;99.90;;;;;;4975382;28;20161;-83
2022/01/08 01:17:13;;;;;;;11.10;3.03;;;1.90;99.90;;;;;;4996063;28;20125;-83
2022/01/08 01:19:39;;;;;;;7.80;2.60;;;1.80;99.90;;;;;;4979974;28;20079;-83
2022/01/08 01:22:05;;;;;;;10.05;3.15;;;1.80;99.90;;;;;;5001383;28;20041;-83
2022/01/08 01:24:32;;;;;;;11.88;3.30;;;3.20;99.90;;;;;;4968530;28;20038;-83
2022/01/08 01:48:23;;;;;;;11.27;3.35;;;2.00;99.90;;;;;;5019763;28;20053;-83
2022/01/08 01:50:49;;;;;;;10.57;3.20;;;3.10;99.90;;;;;;4978941;28;20030;-83
2022/01/08 01:53:15;;;;;;;8.98;3.42;;;1.90;99.90;;;;;;5005169;28;20041;-82
2022/01/08 01:55:45;;;;;;;13.15;3.08;;;2.00;99.90;;;;;;4995107;28;20050;-83
2022/01/08 01:58:11;;;;;;;9.05;2.80;;;2.00;99.90;;;;;;4980349;28;20048;-83
2022/01/08 02:00:37;;;;;;;11.13;3.10;;;3.50;99.90;;;;;;4988747;28;20042;-83
2022/01/08 02:03:03;;;;;;;10.80;3.47;;;2.00;99.90;;;;;;4995206;28;20124;-83
2022/01/08 02:05:29;;;;;;;9.18;3.20;;;2.00;99.90;;;;;;4995572;28;20509;-82
2022/01/08 02:07:55;;;;;;;8.93;3.53;;;2.00;99.90;;;;;;4980767;28;20049;-83
2022/01/08 02:10:22;;;;;;;9.77;3.63;;;2.00;99.90;;;;;;4971246;28;20129;-83
2022/01/08 02:12:48;;;;;;;10.43;3.83;;;2.00;99.90;;;;;;4996579;28;20056;-83
2022/01/08 02:15:14;;;;;;;9.07;3.42;;;2.00;99.90;;;;;;4974464;28;20033;-83
2022/01/08 02:17:40;;;;;;;12.77;3.40;;;2.00;99.90;;;;;;4985348;28;20184;-83
2022/01/08 02:20:07;;;;;;;10.88;3.47;;;2.00;99.90;;;;;;4971934;28;20120;-83
2022/01/08 02:22:32;;;;;;;10.90;3.25;;;2.00;99.90;;;;;;4991940;28;20045;-83
2022/01/08 02:24:58;;;;;;;10.73;3.40;;;3.90;99.90;;;;;;4994835;28;20384;-83
2022/01/08 02:27:24;;;;;;;10.43;3.30;;;2.00;99.90;;;;;;4962292;28;20042;-83
2022/01/08 02:29:50;;;;;;;11.18;3.47;;;3.80;99.90;;;;;;4978795;28;20120;-83
2022/01/08 02:32:19;;;;;;;8.32;3.33;;;2.00;99.90;;;;;;5010928;28;20037;-83
2022/01/08 02:34:47;;;;;;;10.98;3.75;;;2.00;99.90;;;;;;4994929;28;20038;-83
2022/01/08 02:37:15;;;;;;;10.70;3.50;;;2.00;99.90;;;;;;4989259;28;20235;-83
2022/01/08 02:39:48;;;;;;;13.00;3.70;;;2.00;99.90;;;;;;4995016;28;20124;-83
2022/01/08 02:42:17;;;;;;;11.05;3.80;;;2.00;99.90;;;;;;4990357;28;20043;-82
2022/01/08 02:44:43;;;;;;;9.63;3.10;;;1.90;99.90;;;;;;4994677;28;20041;-82
2022/01/08 02:47:10;;;;;;;12.02;3.50;;;1.90;99.90;;;;;;5013622;28;20042;-83
2022/01/08 02:49:37;;;;;;;9.93;3.47;;;1.90;99.90;;;;;;4989204;28;20048;-83
2022/01/08 02:52:04;;;;;;;12.52;3.85;;;2.50;99.90;;;;;;4993976;28;20219;-83
2022/01/08 02:54:30;;;;;;;11.95;3.97;;;1.90;99.90;;;;;;4994727;28;20033;-83
2022/01/08 02:56:56;;;;;;;12.55;3.63;;;3.20;99.90;;;;;;5010528;28;20037;-83
2022/01/08 02:59:22;;;;;;;9.18;3.55;;;1.80;99.90;;;;;;4975212;28;20124;-83
2022/01/08 03:01:47;;;;;;;10.05;3.25;;;1.80;99.90;;;;;;4978406;28;20343;-83
2022/01/08 03:04:14;;;;;;;9.45;3.05;;;1.80;99.90;;;;;;4973408;28;20038;-83
2022/01/08 03:06:40;;;;;;;8.23;3.25;;;1.80;99.90;;;;;;4998769;28;20042;-82
2022/01/08 03:09:07;;;;;;;8.88;3.10;;;1.80;99.90;;;;;;4993740;28;20120;-83
2022/01/08 03:11:32;;;;;;;8.73;3.25;;;1.80;99.90;;;;;;5011232;28;20042;-83
2022/01/08 03:13:58;;;;;;;9.50;3.70;;;1.70;99.90;;;;;;5009615;28;20053;-83
2022/01/08 03:16:24;;;;;;;11.50;3.45;;;1.80;99.90;;;;;;4965564;28;20060;-83
2022/01/08 03:18:50;;;;;;;10.25;3.00;;;1.80;99.90;;;;;;4993661;28;20402;-84
2022/01/08 03:21:19;;;;;;;8.98;2.92;;;1.80;99.90;;;;;;4977319;28;20045;-83
2022/01/08 03:24:01;;;;;;;8.82;3.10;;;1.70;99.90;;;;;;4976949;28;20182;-83
2022/01/08 03:26:29;;;;;;;8.27;2.80;;;1.70;99.90;;;;;;4994875;28;20037;-83
2022/01/08 03:28:56;;;;;;;9.85;3.00;;;1.70;99.90;;;;;;5009906;28;20053;-84
2022/01/08 03:31:23;;;;;;;8.90;2.90;;;3.30;99.90;;;;;;4971070;28;20038;-83
2022/01/08 03:33:50;;;;;;;9.77;2.90;;;1.70;99.90;;;;;;4996700;28;20034;-83
2022/01/08 03:36:21;;;;;;;9.25;3.00;;;1.70;99.90;;;;;;4998533;28;20057;-83
2022/01/08 03:38:47;;;;;;;11.00;3.40;;;1.60;99.90;;;;;;4982298;28;20045;-83
2022/01/08 03:41:12;;;;;;;8.77;2.97;;;2.50;99.90;;;;;;4974268;28;20122;-83
2022/01/08 03:43:38;;;;;;;13.02;2.97;;;1.60;99.90;;;;;;4999028;28;20041;-83
2022/01/08 03:46:04;;;;;;;9.45;2.83;;;2.80;99.90;;;;;;4988612;28;20054;-83
2022/01/08 03:49:24;;;;;;;8.45;2.85;;;2.80;99.90;;;;;;4983269;28;20096;-83
2022/01/08 03:51:18;;;;;;;9.02;2.72;;;1.60;99.90;;;;;;4986907;28;20049;-83
2022/01/08 03:53:44;;;;;;;10.52;3.33;;;1.60;99.90;;;;;;4967711;28;20034;-83
2022/01/08 03:56:10;;;;;;;9.98;2.78;;;1.60;99.90;;;;;;4967306;28;20033;-83
2022/01/08 03:58:36;;;;;;;8.75;2.63;;;1.60;99.90;;;;;;4987311;28;20045;-83
2022/01/08 04:01:02;;;;;;;8.63;2.80;;;1.50;99.90;;;;;;4997978;28;20537;-82
2022/01/08 04:03:28;;;;;;;12.15;2.90;;;1.60;99.90;;;;;;4995941;28;20121;-83
2022/01/08 04:05:54;;;;;;;9.18;2.90;;;1.60;99.90;;;;;;4997046;28;20172;-83
2022/01/08 04:08:20;;;;;;;9.43;2.85;;;1.60;99.90;;;;;;4978166;28;20061;-83
2022/01/08 04:10:45;;;;;;;10.63;2.78;;;1.60;99.90;;;;;;4996985;28;20037;-83
2022/01/08 04:13:15;;;;;;;11.00;2.90;;;1.50;99.90;;;;;;4998160;28;20050;-83
2022/01/08 04:15:44;;;;;;;10.43;2.65;;;1.60;99.90;;;;;;4996023;28;20061;-83
2022/01/08 04:18:10;;;;;;;12.05;2.70;;;3.00;99.90;;;;;;5008609;28;20042;-83
2022/01/08 04:21:21;;;;;;;8.13;2.63;;;1.50;99.90;;;;;;4997234;28;20037;-83
2022/01/08 04:23:24;;;;;;;9.10;2.90;;;1.50;99.90;;;;;;5013068;28;20113;-83
2022/01/08 04:25:50;;;;;;;8.52;2.40;;;1.50;99.90;;;;;;5013623;28;20406;-83
2022/01/08 04:28:16;;;;;;;10.68;3.25;;;2.70;99.90;;;;;;4980983;28;20045;-83
2022/01/08 04:30:43;;;;;;;12.00;2.70;;;2.90;99.90;;;;;;5011391;28;20397;-84
2022/01/08 04:33:09;;;;;;;9.82;2.70;;;1.60;99.90;;;;;;4993017;28;20091;-83
2022/01/08 04:35:34;;;;;;;8.35;2.60;;;1.50;99.90;;;;;;5004224;28;20045;-83
2022/01/08 04:38:00;;;;;;;7.93;2.47;;;1.50;99.90;;;;;;4994447;28;20034;-83
2022/01/08 04:40:26;;;;;;;8.90;2.70;;;2.40;99.90;;;;;;4995416;28;20041;-83
2022/01/08 04:42:52;;;;;;;7.20;2.60;;;1.50;99.90;;;;;;4969103;28;20387;-83
2022/01/08 04:45:18;;;;;;;9.32;2.25;;;1.60;99.90;;;;;;4995565;28;20076;-83
2022/01/08 04:47:44;;;;;;;10.80;2.47;;;1.60;99.90;;;;;;4965168;28;20030;-83
2022/01/08 04:50:13;;;;;;;7.80;2.40;;;1.60;99.90;;;;;;4980627;28;20033;-83
2022/01/08 04:52:40;;;;;;;9.30;2.33;;;1.60;99.90;;;;;;4988139;28;20045;-83
2022/01/08 04:55:06;;;;;;;8.65;2.40;;;1.70;99.90;;;;;;4982087;28;20041;-83
2022/01/08 04:57:32;;;;;;;9.25;2.42;;;;;;;;;;4996449;28;20037;-83
2022/01/08 04:59:58;;;;;;;11.57;2.35;;;1.80;99.90;;;;;;4996293;28;20116;-82
2022/01/08 05:02:24;;;;;;;8.38;2.45;;;1.80;99.90;;;;;;4997158;28;20128;-83
2022/01/08 05:04:49;;;;;;;7.22;2.00;;;1.90;99.90;;;;;;4996782;28;20072;-83
2022/01/08 05:07:15;;;;;;;11.40;2.58;;;1.90;99.90;;;;;;4966968;28;20188;-83
2022/01/08 05:09:41;;;;;;;10.60;2.70;;;;;;;;;;4979447;28;20395;-83
2022/01/08 05:12:07;;;;;;;6.55;2.25;;;1.90;99.90;;;;;;4978514;28;20537;-83
2022/01/08 05:14:33;;;;;;;9.52;2.47;;;;;;;;;;4995363;28;20049;-83
2022/01/08 05:17:01;;;;;;;7.80;2.35;;;1.80;99.90;;;;;;4995441;28;20042;-83
2022/01/08 05:19:45;;;;;;;9.07;2.72;;;1.80;99.90;;;;;;4992761;28;20116;-84
2022/01/08 05:22:18;;;;;;;9.43;2.50;;;1.80;99.90;;;;;;4980286;28;20507;-83
2022/01/08 05:24:44;;;;;;;8.18;2.30;;;1.80;99.90;;;;;;4979185;28;20047;-83
2022/01/08 05:27:15;;;;;;;7.60;2.20;;;1.80;99.90;;;;;;4977656;28;20037;-83
2022/01/08 05:29:42;;;;;;;9.05;2.30;;;1.80;99.90;;;;;;4961135;28;20121;-83
2022/01/08 05:32:08;;;;;;;11.13;2.35;;;1.80;99.90;;;;;;4978126;28;20344;-83
2022/01/08 05:34:33;;;;;;;7.90;2.20;;;1.80;99.90;;;;;;5009099;28;20061;-82
2022/01/08 05:36:59;;;;;;;7.63;2.22;;;2.90;99.90;;;;;;4980586;28;20045;-83
2022/01/08 05:39:25;;;;;;;10.77;2.53;;;3.30;99.90;;;;;;4978579;28;20037;-83
2022/01/08 05:41:51;;;;;;;8.73;2.33;;;2.50;99.90;;;;;;5016883;28;20128;-83
2022/01/08 05:44:17;;;;;;;8.23;2.35;;;1.80;99.90;;;;;;5000506;28;20041;-83
2022/01/08 05:46:45;;;;;;;8.25;2.22;;;2.90;99.90;;;;;;5012447;28;20073;-83
2022/01/08 05:49:12;;;;;;;9.20;2.10;;;;;;;;;;5012227;28;20041;-84
2022/01/08 05:51:38;;;;;;;9.82;2.40;;;1.80;99.90;;;;;;4995960;28;20406;-83
2022/01/08 05:54:04;;;;;;;9.73;2.20;;;2.80;99.90;;;;;;4996311;28;20041;-83
2022/01/08 05:56:29;;;;;;;10.40;2.30;;;1.80;99.90;;;;;;4978912;28;20033;-83
2022/01/08 05:58:55;;;;;;;9.40;2.30;;;1.70;99.90;;;;;;4967263;28;20102;-83
2022/01/08 06:01:21;;;;;;;11.43;3.08;;;1.70;99.90;;;;;;4963881;28;20479;-82
2022/01/08 06:03:46;;;;;;;9.20;2.20;;;1.70;99.90;;;;;;4977654;28;20069;-83
2022/01/08 06:06:12;;;;;;;8.23;2.30;;;;;;;;;;4978636;28;20060;-82
2022/01/08 06:08:38;;;;;;;8.85;2.30;;;1.70;99.90;;;;;;4979474;28;20121;-83
2022/01/08 06:11:04;;;;;;;10.75;2.50;;;1.70;99.90;;;;;;4972220;28;20124;-83
2022/01/08 06:13:29;;;;;;;10.48;2.58;;;1.70;99.90;;;;;;4976598;28;20058;-83
2022/01/08 06:15:55;;;;;;;9.10;2.40;;;1.70;99.90;;;;;;4965718;28;20037;-83
2022/01/08 06:18:21;;;;;;;8.98;2.78;;;3.00;99.90;;;;;;4995032;28;20041;-83
2022/01/08 06:20:47;;;;;;;9.05;2.42;;;1.70;99.90;;;;;;5009031;28;20104;-83
2022/01/08 06:23:12;;;;;;;9.65;2.40;;;1.70;99.90;;;;;;4970734;28;20041;-83
2022/01/08 06:25:43;;;;;;;10.80;2.60;;;2.60;99.90;;;;;;4978909;28;20045;-83
2022/01/08 06:28:09;;;;;;;9.55;3.10;;;1.80;99.90;;;;;;4979902;28;20037;-83
2022/01/08 06:30:35;;;;;;;13.10;3.35;;;1.70;99.90;;;;;;4967435;28;20037;-83
2022/01/08 06:33:01;;;;;;;10.95;3.55;;;2.20;99.90;;;;;;4962957;28;20125;-83
2022/01/08 06:35:27;;;;;;;13.18;3.70;;;;;;;;;;5017080;28;20044;-83
2022/01/08 06:37:53;;;;;;;8.35;3.28;;;1.60;99.90;;;;;;4978707;28;20138;-83
2022/01/08 06:40:19;;;;;;;11.35;4.00;;;2.90;99.90;;;;;;4975281;28;20045;-83
2022/01/08 06:42:44;;;;;;;10.85;3.70;;;1.50;99.90;;;;;;4994332;28;20077;-83
2022/01/08 06:45:10;;;;;;;14.70;4.05;;;1.50;99.90;;;;;;4972352;28;20155;-83
2022/01/08 06:47:36;;;;;;;13.55;4.07;;;1.50;99.90;;;;;;4995958;28;20452;-83
2022/01/08 06:50:03;;;;;;;12.75;4.53;;;2.30;99.90;;;;;;4953515;28;20038;-83
2022/01/08 06:52:28;;;;;;;13.45;4.82;;;1.50;99.90;;;;;;4973004;28;20056;-83
2022/01/08 06:54:54;;;;;;;13.50;4.40;;;1.40;99.90;;;;;;4979289;28;20479;-83
2022/01/08 06:57:20;;;;;;;14.73;5.20;;;1.40;99.90;;;;;;4967718;28;20049;-82
2022/01/08 06:59:46;;;;;;;11.85;5.15;;;1.40;99.90;;;;;;4977075;28;20628;-82
2022/01/08 07:02:11;;;;;;;12.93;5.05;;;2.90;99.90;;;;;;4988261;28;20038;-83
2022/01/08 07:04:37;;;;;;;17.02;5.30;;;1.40;99.90;;;;;;4977826;28;20041;-82
2022/01/08 07:07:03;;;;;;;15.35;6.15;;;1.40;99.90;;;;;;4962848;28;20359;-83
2022/01/08 07:09:28;;;;;;;11.75;5.45;;;2.90;99.90;;;;;;4977087;28;20282;-83
2022/01/08 07:11:54;;;;;;;17.63;5.45;;;1.40;99.90;;;;;;4994267;28;20037;-82
2022/01/08 07:14:20;;;;;;;15.00;5.28;;;;;;;;;;4963254;28;20057;-83
2022/01/08 07:16:48;;;;;;;15.25;5.82;;;1.40;99.90;;;;;;4977446;28;20046;-83
2022/01/08 07:19:13;;;;;;;17.23;5.95;;;1.40;99.90;;;;;;4959839;28;20041;-82
2022/01/08 07:21:39;;;;;;;15.82;5.53;;;1.40;99.90;;;;;;4955446;28;20038;-83
2022/01/08 07:24:05;;;;;;;16.73;6.05;;;2.30;99.90;;;;;;4978968;28;20053;-82
2022/01/08 07:26:30;;;;;;;12.40;5.85;;;1.40;99.90;;;;;;4962296;28;20125;-83
2022/01/08 07:28:56;;;;;;;13.23;5.45;;;3.40;99.90;;;;;;4966671;28;20046;-82
2022/01/08 07:31:22;;;;;;;17.10;5.80;;;1.40;99.90;;;;;;4991018;28;20030;-82
2022/01/08 07:33:49;;;;;;;14.50;5.70;;;1.40;99.90;;;;;;4988800;28;20048;-82
2022/01/08 07:36:19;;;;;;;13.80;5.70;;;1.40;99.90;;;;;;4977472;28;20050;-82
2022/01/08 07:38:45;;;;;;;15.85;5.40;;;1.40;99.90;;;;;;4967641;28;20046;-82
2022/01/08 07:41:11;;;;;;;12.95;5.45;;;1.40;99.90;;;;;;4973134;28;20442;-83
2022/01/08 07:43:36;;;;;;;16.20;5.70;;;1.40;99.90;;;;;;4959761;28;20038;-82
2022/01/08 07:46:02;;;;;;;14.30;5.85;;;1.40;99.90;;;;;;4958234;28;20071;-82
2022/01/08 07:48:28;;;;;;;16.42;6.20;;;1.30;99.90;;;;;;4971833;28;20108;-82
2022/01/08 07:50:53;;;;;;;16.23;5.55;;;1.30;99.90;;;;;;4941646;28;20542;-82
2022/01/08 07:53:19;;;;;;;15.27;5.43;;;1.30;99.90;;;;;;4956196;28;20030;-82
2022/01/08 07:55:45;;;;;;;15.43;5.50;;;1.30;99.90;;;;;;4956760;28;20044;-82
2022/01/08 07:58:11;;;;;;;16.17;5.55;;;1.40;99.90;;;;;;4956388;28;20034;-82
2022/01/08 08:00:37;;;;;;;20.40;5.32;;;1.40;99.90;;;;;;4973810;28;20479;-82
2022/01/08 08:03:02;;;;;;;14.50;5.43;;;1.40;99.90;;;;;;4974605;28;20066;-83
2022/01/08 08:05:30;;;;;;;13.25;5.55;;;1.40;99.90;;;;;;4966407;28;20038;-83
2022/01/08 08:07:56;;;;;;;18.27;5.68;;;3.20;99.90;;;;;;4949899;28;20159;-84
2022/01/08 08:10:25;;;;;;;19.02;6.22;;;;;;;;;;4960534;28;20080;-83
2022/01/08 08:12:53;;;;;;;12.77;5.20;;;1.40;99.90;;;;;;4959531;28;20079;-83
2022/01/08 08:15:20;;;;;;;16.27;4.90;;;1.40;99.90;;;;;;4979389;28;20396;-83
2022/01/08 08:17:46;;;;;;;13.02;5.43;;;1.40;99.90;;;;;;5000389;28;20034;-83
2022/01/08 08:20:12;;;;;;;12.32;4.80;;;1.40;99.90;;;;;;4972954;28;20459;-83
2022/01/08 08:22:39;;;;;;;12.93;4.40;;;1.40;99.90;;;;;;5006891;28;20045;-83
2022/01/08 08:25:07;;;;;;;13.93;4.93;;;1.40;99.90;;;;;;4995070;28;20152;-83
2022/01/08 08:27:32;;;;;;;12.25;5.07;;;1.50;99.90;;;;;;4994136;28;20532;-83
2022/01/08 08:29:58;;;;;;;14.38;4.47;;;3.20;99.90;;;;;;4978630;28;20030;-83
2022/01/08 08:32:24;;;;;;;11.23;4.70;;;2.70;99.90;;;;;;4976417;28;20661;-82
2022/01/08 08:34:52;;;;;;;13.70;4.50;;;3.50;99.90;;;;;;4993962;28;20565;-83
2022/01/08 08:37:18;;;;;;;11.48;4.15;;;3.60;99.90;;;;;;4977394;28;20064;-83
2022/01/08 08:39:44;;;;;;;13.20;4.82;;;1.70;99.90;;;;;;4960823;28;20042;-83
2022/01/08 08:42:09;;;;;;;13.45;4.57;;;1.80;99.90;;;;;;4977332;28;20057;-83
2022/01/08 08:44:35;;;;;;;13.15;4.75;;;1.80;99.90;;;;;;4990854;28;20034;-82
2022/01/08 08:47:03;;;;;;;13.20;4.25;;;3.10;99.90;;;;;;4976862;28;20096;-82
2022/01/08 08:49:29;;;;;;;14.73;5.25;;;1.90;99.90;;;;;;4993202;28;20042;-83
2022/01/08 08:51:55;;;;;;;14.60;4.22;;;3.50;99.90;;;;;;5010527;28;20060;-83
2022/01/08 08:54:21;;;;;;;15.68;4.30;;;2.00;99.90;;;;;;4976908;28;20046;-83
2022/01/08 08:56:46;;;;;;;14.10;4.60;;;2.10;99.90;;;;;;4987173;28;20034;-83
2022/01/08 08:59:12;;;;;;;17.30;4.30;;;;;;;;;;4977098;28;20407;-83
2022/01/08 09:01:40;;;;;;;15.32;4.50;;;2.10;99.90;;;;;;4971907;28;20463;-83
2022/01/08 09:04:06;;;;;;;13.23;4.32;;;2.10;99.90;;;;;;4969792;28;20457;-83
2022/01/08 09:06:32;;;;;;;13.77;4.82;;;2.10;99.90;;;;;;4971492;28;20046;-83
2022/01/08 09:08:59;;;;;;;15.65;5.25;;;2.10;99.90;;;;;;5004916;28;20073;-84
2022/01/08 09:11:25;;;;;;;12.18;4.50;;;3.70;99.90;;;;;;4991626;28;20155;-84
2022/01/08 09:13:51;;;;;;;13.73;4.50;;;2.40;99.90;;;;;;4975736;28;20430;-83
2022/01/08 09:16:16;;;;;;;11.95;4.05;;;2.20;99.90;;;;;;4978922;28;20041;-83
2022/01/08 09:18:43;;;;;;;13.80;4.35;;;2.20;99.90;;;;;;4970160;28;20038;-84
2022/01/08 09:21:09;;;;;;;12.98;4.45;;;2.30;99.90;;;;;;4972733;28;20034;-83
2022/01/08 09:23:35;;;;;;;13.88;3.90;;;3.70;99.90;;;;;;5005461;28;20078;-84
2022/01/08 09:26:01;;;;;;;13.52;4.00;;;3.50;99.90;;;;;;4971461;28;20168;-84
2022/01/08 09:28:28;;;;;;;12.75;4.32;;;3.80;99.90;;;;;;4993156;28;20046;-83
2022/01/08 09:30:55;;;;;;;15.23;4.15;;;2.60;99.90;;;;;;4992195;28;20539;-84
2022/01/08 09:33:21;;;;;;;12.27;3.95;;;2.00;99.90;;;;;;4990723;28;20404;-84
2022/01/08 09:35:47;;;;;;;10.88;3.90;;;2.80;99.90;;;;;;4984170;28;20072;-84
2022/01/08 09:38:13;;;;;;;11.63;4.00;;;2.80;99.90;;;;;;4993042;28;20045;-84
2022/01/08 09:40:39;;;;;;;13.73;4.30;;;4.10;99.90;;;;;;5008884;28;20460;-84
2022/01/08 09:43:05;;;;;;;16.80;4.10;;;4.40;99.90;;;;;;4989556;28;20096;-85
2022/01/08 09:45:31;;;;;;;12.35;4.30;;;2.90;99.90;;;;;;4959791;28;20407;-84
2022/01/08 09:47:57;;;;;;;10.43;3.40;;;2.90;99.90;;;;;;4993879;28;20034;-84
2022/01/08 09:50:23;;;;;;;10.73;3.72;;;2.90;99.90;;;;;;5009342;28;20042;-84
2022/01/08 09:52:53;;;;;;;8.25;3.15;;;2.90;99.90;;;;;;4992027;28;20038;-84
2022/01/08 09:55:19;;;;;;;12.30;3.70;;;2.90;99.90;;;;;;4990145;28;20113;-84
2022/01/08 09:57:45;;;;;;;11.20;3.50;;;2.90;99.90;;;;;;4977314;28;20486;-85
2022/01/08 10:00:14;;;;;;;14.45;3.65;;;2.90;99.90;;;;;;4980796;28;20046;-84
2022/01/08 10:02:41;;;;;;;14.18;3.60;;;2.90;99.90;;;;;;5006741;28;20122;-83
2022/01/08 10:05:15;;;;;;;12.68;3.78;;;3.90;99.90;;;;;;4974472;28;20038;-84
2022/01/08 10:07:42;;;;;;;12.57;3.63;;;3.90;99.90;;;;;;4957825;28;20045;-84
2022/01/08 10:10:13;;;;;;;14.35;3.80;;;3.80;99.90;;;;;;4982589;28;20535;-85
2022/01/08 10:12:55;;;;;;;10.77;3.47;;;3.00;99.90;;;;;;4990443;28;20560;-84
2022/01/08 10:18:21;;;;;;;10.55;2.97;;;3.10;99.90;;;;;;4999101;28;20050;-85
2022/01/08 10:20:50;;;;;;;9.88;3.58;;;4.80;99.90;;;;;;4967862;28;20097;-85
2022/01/08 10:23:24;;;;;;;14.07;3.85;;;3.20;99.90;;;;;;4969881;28;20472;-84
2022/01/08 10:25:57;;;;;;;11.90;3.42;;;3.20;99.90;;;;;;4970513;28;20088;-84
2022/01/08 10:28:43;;;;;;;16.02;3.85;;;3.30;99.90;;;;;;4978043;28;20038;-84
2022/01/08 10:31:13;;;;;;;13.40;3.63;;;3.20;99.90;;;;;;4974392;28;20038;-86
2022/01/08 10:33:40;;;;;;;10.73;3.92;;;3.30;99.90;;;;;;4979900;28;20030;-85
2022/01/08 10:36:06;;;;;;;11.57;4.30;;;4.90;99.90;;;;;;4945948;28;20052;-85
2022/01/08 10:38:32;;;;;;;12.27;4.13;;;4.10;99.90;;;;;;4996830;28;20543;-86
2022/01/08 10:40:59;;;;;;;12.15;3.63;;;3.30;99.90;;;;;;4975540;28;20046;-85
2022/01/08 10:43:28;;;;;;;13.02;3.78;;;5.10;99.90;;;;;;4948692;28;20046;-85
2022/01/08 10:45:56;;;;;;;12.68;3.80;;;3.40;99.90;;;;;;4980019;28;20493;-85
2022/01/08 10:48:46;;;;;;;15.10;4.47;;;4.70;99.90;;;;;;4978794;28;20037;-85
2022/01/08 10:51:26;;;;;;;14.05;4.18;;;4.70;99.90;;;;;;4980024;28;20045;-85
2022/01/08 10:53:56;;;;;;;15.48;4.53;;;3.40;99.90;;;;;;4975902;28;20052;-85
2022/01/08 10:56:34;;;;;;;10.75;4.00;;;4.20;99.90;;;;;;4978806;28;20061;-84
2022/01/08 10:59:18;;;;;;;16.27;4.72;;;3.40;99.90;;;;;;4976455;28;20483;-85
2022/01/08 11:01:53;;;;;;;11.95;3.70;;;3.40;99.90;;;;;;4965627;28;20453;-85
2022/01/08 11:04:37;;;;;;;12.93;4.03;;;3.40;99.90;;;;;;4978591;28;20049;-85
2022/01/08 11:07:27;;;;;;;11.73;3.85;;;3.40;99.90;;;;;;4987358;28;20506;-85
2022/01/08 11:09:56;;;;;;;13.30;3.92;;;3.50;99.90;;;;;;4988129;28;20149;-85
2022/01/08 11:12:31;;;;;;;11.00;3.97;;;3.40;99.90;;;;;;5003044;28;20042;-85
2022/01/08 11:17:49;;;;;;;10.75;3.80;;;3.50;99.90;;;;;;5032098;28;20048;-85
2022/01/08 11:20:22;;;;;;;10.63;3.83;;;3.50;99.90;;;;;;4991490;28;20197;-85
2022/01/08 11:22:51;;;;;;;16.13;4.50;;;3.50;99.90;;;;;;5004349;28;20556;-84
2022/01/08 11:25:21;;;;;;;16.25;4.22;;;5.10;99.90;;;;;;4992008;28;20584;-85
2022/01/08 11:28:02;;;;;;;14.75;4.38;;;4.50;99.90;;;;;;5007843;28;20512;-85
2022/01/08 11:30:33;;;;;;;13.18;4.40;;;3.00;99.90;;;;;;5008221;28;20411;-85
2022/01/08 11:33:06;;;;;;;10.18;4.15;;;3.70;99.90;;;;;;4995513;28;20034;-85
2022/01/08 11:35:34;;;;;;;12.70;4.68;;;4.90;99.90;;;;;;4995448;28;20038;-85
2022/01/08 11:38:04;;;;;;;14.73;4.85;;;3.70;99.90;;;;;;4994397;28;20040;-85
2022/01/08 11:40:30;;;;;;;14.18;4.68;;;4.10;99.90;;;;;;4994489;28;20048;-84
2022/01/08 11:43:02;;;;;;;11.85;4.60;;;3.80;99.90;;;;;;4998015;28;20117;-85
2022/01/08 11:45:33;;;;;;;11.20;5.03;;;3.80;99.90;;;;;;4994636;28;20076;-85
2022/01/08 11:48:03;;;;;;;11.82;4.82;;;4.90;99.90;;;;;;5005106;28;20116;-85
2022/01/08 11:50:30;;;;;;;14.25;5.65;;;3.90;99.90;;;;;;4994295;28;20490;-85
2022/01/08 11:53:13;;;;;;;14.02;5.72;;;3.90;99.90;;;;;;4978028;28;20112;-85
2022/01/08 11:55:39;;;;;;;12.95;5.78;;;3.90;99.90;;;;;;4993008;28;20034;-86
2022/01/08 11:58:17;;;;;;;13.55;5.78;;;4.00;99.90;;;;;;5024302;28;20116;-84
2022/01/08 12:01:06;;;;;;;14.30;5.55;;;4.30;99.90;;;;;;4996610;28;20037;-85
2022/01/08 12:03:41;;;;;;;11.63;5.78;;;4.00;99.90;;;;;;5010771;28;20071;-85
2022/01/08 12:06:19;;;;;;;16.08;6.18;;;4.00;99.90;;;;;;4998499;28;20048;-85
2022/01/08 12:11:41;;;;;;;12.70;5.45;;;4.00;99.90;;;;;;5018726;28;20041;-85
2022/01/08 12:14:13;;;;;;;13.52;5.53;;;5.10;99.90;;;;;;5012914;28;20048;-85
2022/01/08 12:16:43;;;;;;;14.40;5.40;;;5.10;99.90;;;;;;5014386;28;20420;-86
2022/01/08 12:19:36;;;;;;;17.23;5.85;;;4.00;99.90;;;;;;4971568;28;20042;-86
2022/01/08 12:22:22;;;;;;;12.27;5.35;;;4.00;99.90;;;;;;4982671;28;20494;-85
2022/01/08 12:24:52;;;;;;;13.25;5.70;;;4.70;99.90;;;;;;4996532;28;20037;-84
2022/01/08 12:27:20;;;;;;;16.45;6.03;;;4.00;99.90;;;;;;4994222;28;20050;-85
2022/01/08 12:29:46;;;;;;;13.88;5.45;;;4.00;99.90;;;;;;5009564;28;20573;-85
2022/01/08 12:32:34;;;;;;;11.77;5.82;;;4.00;99.90;;;;;;4996461;28;20364;-84
2022/01/08 12:35:15;;;;;;;16.08;6.18;;;4.00;99.90;;;;;;4996672;28;20044;-85
2022/01/08 12:37:44;;;;;;;14.27;6.40;;;4.00;99.90;;;;;;4996231;28;20406;-84
2022/01/08 12:40:12;;;;;;;16.20;6.85;;;4.10;99.90;;;;;;5005179;28;20046;-85
2022/01/08 12:42:43;;;;;;;13.70;6.35;;;4.10;99.90;;;;;;4988374;28;20052;-84
2022/01/08 12:45:11;;;;;;;16.60;6.47;;;5.00;99.90;;;;;;5006748;28;20067;-84
2022/01/08 12:48:07;;;;;;;16.23;7.35;;;4.10;99.90;;;;;;5012854;28;20033;-85
2022/01/08 12:50:44;;;;;;;15.43;7.35;;;4.10;99.90;;;;;;5006834;28;20045;-85
2022/01/08 12:53:22;;;;;;;16.70;7.63;;;4.10;99.90;;;;;;4999314;28;20033;-85
2022/01/08 12:55:57;;;;;;;16.90;8.25;;;4.90;99.90;;;;;;5013586;28;20394;-85
2022/01/08 12:58:25;;;;;;;17.73;9.43;;;4.10;99.90;;;;;;5001841;28;20061;-85
2022/01/08 13:01:00;;;;;;;16.85;8.82;;;4.00;99.90;;;;;;4996315;28;20095;-85
2022/01/08 13:03:37;;;;;;;15.20;8.63;;;4.00;99.90;;;;;;4989089;28;20041;-85
2022/01/08 13:06:10;;;;;;;18.73;9.30;;;4.10;99.90;;;;;;4995793;28;20049;-85
2022/01/08 13:08:36;;;;;;;;;;;4.10;99.90;;;;;;5003775;28;20037;-85
2022/01/08 13:11:04;;;;;;;17.35;9.38;;;4.40;99.90;;;;;;4977049;28;20095;-85
2022/01/08 13:14:03;;;;;;;20.63;10.05;;;6.00;99.90;;;;;;4995732;28;20037;-84
2022/01/08 13:16:33;;;;;;;16.55;9.65;;;4.10;99.90;;;;;;5003910;28;20041;-85
2022/01/08 13:19:11;;;;;;;19.83;10.55;;;4.10;99.90;;;;;;4995305;28;20048;-85
2022/01/08 13:21:47;;;;;;;18.30;10.45;;;4.10;99.90;;;;;;5015622;28;20124;-85
2022/01/08 13:24:18;;;;;;;17.33;10.35;;;4.10;99.90;;;;;;5013912;28;20077;-85
2022/01/08 13:26:52;;;;;;;16.73;10.02;;;4.10;99.90;;;;;;4999714;28;20067;-85
2022/01/08 13:29:27;;;;;;;15.73;10.05;;;4.00;99.90;;;;;;5011157;28;20038;-85